createdAt,value
2023-05-03T00:00:08.408Z,4.97
2023-05-03T00:03:10.151Z,5.47
2023-05-03T00:06:12.563Z,4.90
2023-05-03T00:09:14.394Z,4.87
2023-05-03T00:12:15.982Z,5.10
2023-05-03T00:15:17.429Z,5.10
2023-05-03T00:18:18.923Z,4.90
2023-05-03T00:21:20.354Z,5.50
2023-05-03T00:24:22.327Z,4.67
2023-05-03T00:27:26.542Z,5.37
2023-05-03T00:30:27.958Z,5.40
2023-05-03T00:33:29.366Z,5.30
2023-05-03T00:36:30.951Z,5.30
2023-05-03T00:39:32.622Z,5.77
2023-05-03T00:42:36.756Z,5.37
2023-05-03T00:45:38.303Z,5.47
2023-05-03T00:48:39.678Z,5.63
2023-05-03T00:51:42.177Z,5.27
2023-05-03T00:54:43.750Z,5.17
2023-05-03T00:57:45.175Z,5.97
2023-05-03T01:00:50.168Z,5.60
2023-05-03T01:03:52.178Z,5.40
2023-05-03T01:07:17.971Z,5.37
2023-05-03T01:10:44.148Z,5.60
2023-05-03T01:13:57.226Z,5.63
2023-05-03T01:17:05.389Z,5.27
2023-05-03T01:20:13.110Z,5.70
2023-05-03T01:23:32.858Z,5.67
2023-05-03T01:26:34.995Z,5.87
2023-05-03T01:29:36.473Z,6.20
2023-05-03T01:32:56.519Z,5.60
2023-05-03T01:36:04.835Z,6.07
2023-05-03T01:39:12.417Z,5.70
2023-05-03T01:42:15.391Z,5.83
2023-05-03T01:45:17.776Z,5.80
2023-05-03T01:48:19.686Z,5.63
2023-05-03T01:51:21.178Z,5.67
2023-05-03T01:54:23.849Z,5.57
2023-05-03T01:57:26.291Z,6.40
2023-05-03T02:00:27.760Z,6.23
2023-05-03T02:03:29.136Z,5.73
2023-05-03T02:06:30.727Z,5.83
2023-05-03T02:09:34.255Z,5.87
2023-05-03T02:12:35.643Z,5.83
2023-05-03T02:15:37.162Z,5.43
2023-05-03T02:18:38.571Z,5.93
2023-05-03T02:21:39.956Z,5.77
2023-05-03T02:24:41.349Z,5.80
2023-05-03T02:27:42.739Z,5.67
2023-05-03T02:30:44.217Z,5.47
2023-05-03T02:33:45.692Z,5.60
2023-05-03T02:36:47.103Z,5.90
2023-05-03T02:39:49.663Z,5.63
2023-05-03T02:42:52.156Z,5.37
2023-05-03T02:45:59.415Z,5.53
2023-05-03T02:49:01.170Z,5.57
2023-05-03T02:52:03.304Z,5.67
2023-05-03T02:55:05.908Z,5.53
2023-05-03T02:58:07.666Z,5.73
2023-05-03T03:01:09.153Z,5.70
2023-05-03T03:04:10.744Z,5.73
2023-05-03T03:07:12.159Z,5.47
2023-05-03T03:10:13.614Z,5.57
2023-05-03T03:13:15.303Z,5.83
2023-05-03T03:16:16.779Z,5.90
2023-05-03T03:19:18.274Z,6.00
2023-05-03T03:22:19.680Z,4.83
2023-05-03T03:25:21.952Z,5.33
2023-05-03T03:28:24.130Z,5.60
2023-05-03T03:31:26.187Z,5.60
2023-05-03T03:34:30.924Z,5.77
2023-05-03T03:37:32.671Z,5.93
2023-05-03T03:40:34.202Z,5.63
2023-05-03T03:43:35.708Z,5.43
2023-05-03T03:46:40.334Z,5.53
2023-05-03T03:49:43.112Z,6.10
2023-05-03T03:52:44.591Z,5.67
2023-05-03T03:55:47.176Z,6.17
2023-05-03T03:58:51.133Z,5.70
2023-05-03T04:01:52.581Z,5.40
2023-05-03T04:04:54.095Z,5.93
2023-05-03T04:07:56.694Z,6.13
2023-05-03T04:11:02.650Z,5.73
2023-05-03T04:14:09.169Z,5.40
2023-05-03T04:17:11.062Z,6.27
2023-05-03T04:20:13.677Z,5.70
2023-05-03T04:23:19.372Z,6.53
2023-05-03T04:26:31.104Z,5.73
2023-05-03T04:29:41.533Z,5.17
2023-05-03T04:32:43.247Z,5.60
2023-05-03T04:35:51.093Z,5.53
2023-05-03T04:38:52.834Z,5.50
2023-05-03T04:41:54.305Z,5.87
2023-05-03T04:44:56.352Z,5.90
2023-05-03T04:47:58.421Z,5.97
2023-05-03T04:51:01.330Z,5.83
2023-05-03T04:54:03.235Z,5.97
2023-05-03T04:57:04.842Z,5.70
2023-05-03T05:00:11.217Z,5.50
2023-05-03T05:03:16.502Z,5.90
2023-05-03T05:06:18.785Z,6.60
2023-05-03T05:09:24.715Z,5.73
2023-05-03T05:12:28.650Z,6.17
2023-05-03T05:15:30.439Z,6.23
2023-05-03T05:18:32.827Z,6.07
2023-05-03T05:21:36.881Z,5.80
2023-05-03T05:24:38.560Z,5.90
2023-05-03T05:27:41.390Z,5.80
2023-05-03T05:30:42.987Z,5.60
2023-05-03T05:33:44.517Z,5.80
2023-05-03T05:36:46.724Z,5.90
2023-05-03T05:39:49.472Z,5.80
2023-05-03T05:42:53.055Z,6.13
2023-05-03T05:45:56.219Z,6.23
2023-05-03T05:48:58.231Z,5.47
2023-05-03T05:51:59.991Z,6.60
2023-05-03T05:55:07.632Z,6.20
2023-05-03T05:58:11.822Z,5.97
2023-05-03T06:01:18.091Z,6.37
2023-05-03T06:04:19.652Z,5.77
2023-05-03T06:07:21.626Z,6.40
2023-05-03T06:10:23.053Z,5.60
2023-05-03T06:13:27.465Z,5.53
2023-05-03T06:16:30.563Z,5.50
2023-05-03T06:19:32.079Z,6.43
2023-05-03T06:22:33.642Z,5.13
2023-05-03T06:25:36.292Z,5.73
2023-05-03T06:28:38.448Z,5.90
2023-05-03T06:31:41.882Z,5.47
2023-05-03T06:34:44.807Z,6.30
2023-05-03T06:37:47.845Z,5.70
2023-05-03T06:40:50.350Z,6.07
2023-05-03T06:43:51.790Z,5.97
2023-05-03T06:46:53.277Z,6.10
2023-05-03T06:49:54.982Z,5.87
2023-05-03T06:52:56.463Z,6.20
2023-05-03T06:55:57.988Z,6.07
2023-05-03T06:59:00.330Z,5.70
2023-05-03T07:02:01.848Z,6.13
2023-05-03T07:05:03.418Z,6.10
2023-05-03T07:08:04.911Z,5.83
2023-05-03T07:11:06.447Z,6.20
2023-05-03T07:14:07.901Z,5.50
2023-05-03T07:17:09.931Z,5.47
2023-05-03T07:20:11.785Z,5.30
2023-05-03T07:23:13.207Z,5.80
2023-05-03T07:26:14.568Z,5.90
2023-05-03T07:29:15.944Z,5.20
2023-05-03T07:32:17.381Z,5.83
2023-05-03T07:35:19.367Z,4.90
2023-05-03T07:38:20.981Z,5.77
2023-05-03T07:41:22.377Z,5.07
2023-05-03T07:44:23.812Z,5.47
2023-05-03T07:47:26.348Z,4.90
2023-05-03T07:50:27.775Z,5.30
2023-05-03T07:53:29.173Z,5.13
2023-05-03T07:56:31.110Z,4.87
2023-05-03T07:59:32.581Z,5.07
2023-05-03T08:02:34.136Z,5.37
2023-05-03T08:05:36.524Z,5.03
2023-05-03T08:08:38.287Z,5.00
2023-05-03T08:11:41.623Z,5.70
2023-05-03T08:14:44.678Z,5.60
2023-05-03T08:17:46.281Z,5.20
2023-05-03T08:20:48.096Z,5.30
2023-05-03T08:23:49.755Z,5.73
2023-05-03T08:26:51.545Z,5.43
2023-05-03T08:29:53.103Z,4.77
2023-05-03T08:32:54.681Z,5.40
2023-05-03T08:35:56.160Z,5.60
2023-05-03T08:38:57.553Z,5.73
2023-05-03T08:42:00.230Z,6.03
2023-05-03T08:45:03.426Z,5.80
2023-05-03T08:48:06.731Z,6.60
2023-05-03T08:51:10.056Z,6.20
2023-05-03T08:54:11.616Z,6.10
2023-05-03T08:57:14.934Z,6.43
2023-05-03T09:00:19.106Z,6.27
2023-05-03T09:03:20.775Z,6.50
2023-05-03T09:06:26.940Z,6.83
2023-05-03T09:09:32.244Z,6.17
2023-05-03T09:12:40.941Z,6.50
2023-05-03T09:15:45.179Z,6.07
2023-05-03T09:18:56.725Z,5.90
2023-05-03T09:22:06.815Z,6.30
2023-05-03T09:25:09.252Z,6.83
2023-05-03T09:28:10.849Z,5.90
2023-05-03T09:31:13.467Z,6.30
2023-05-03T09:34:22.694Z,6.40
2023-05-03T09:37:36.767Z,6.43
2023-05-03T09:40:46.493Z,6.83
2023-05-03T09:43:50.291Z,6.47
2023-05-03T09:47:07.171Z,6.63
2023-05-03T09:50:08.971Z,7.40
2023-05-03T09:53:10.721Z,6.83
2023-05-03T09:56:15.165Z,6.40
2023-05-03T09:59:16.936Z,6.90
2023-05-03T10:02:18.438Z,6.50
2023-05-03T10:05:22.262Z,6.33
2023-05-03T10:08:34.817Z,6.80
2023-05-03T10:11:36.786Z,6.50
2023-05-03T10:14:42.545Z,6.57
2023-05-03T10:17:48.465Z,6.90
2023-05-03T10:20:55.228Z,5.87
2023-05-03T10:24:09.530Z,5.83
2023-05-03T10:27:11.993Z,6.13
2023-05-03T10:30:26.012Z,5.93
2023-05-03T10:33:36.955Z,5.90
2023-05-03T10:36:48.977Z,5.57
2023-05-03T10:39:52.976Z,5.70
2023-05-03T10:42:56.268Z,6.17
2023-05-03T10:45:58.686Z,5.73
2023-05-03T10:49:26.386Z,5.57
2023-05-03T10:52:48.129Z,5.37
2023-05-03T10:56:05.744Z,5.00
2023-05-03T10:59:07.181Z,4.53
2023-05-03T11:02:11.142Z,5.20
2023-05-03T11:05:15.133Z,5.00
2023-05-03T11:08:17.865Z,5.77
2023-05-03T11:11:19.385Z,4.50
2023-05-03T11:14:21.162Z,4.33
2023-05-03T11:17:23.501Z,4.37
2023-05-03T11:20:25.678Z,3.90
2023-05-03T11:23:29.908Z,4.37
2023-05-03T11:26:36.123Z,5.13
2023-05-03T11:29:38.619Z,4.80
2023-05-03T11:32:43.764Z,3.87
2023-05-03T11:35:45.238Z,3.63
2023-05-03T11:38:47.040Z,3.90
2023-05-03T11:42:08.734Z,3.00
2023-05-03T11:45:10.620Z,2.93
2023-05-03T11:48:13.286Z,2.20
2023-05-03T11:51:15.130Z,2.17
2023-05-03T11:54:25.428Z,2.27
2023-05-03T11:57:31.735Z,2.10
2023-05-03T12:00:33.438Z,2.10
2023-05-03T12:03:36.156Z,2.70
2023-05-03T12:06:38.862Z,2.30
2023-05-03T12:09:43.960Z,2.67
2023-05-03T12:12:53.505Z,2.90
2023-05-03T12:16:11.516Z,3.03
2023-05-03T12:19:24.290Z,2.57
2023-05-03T12:22:30.450Z,2.87
2023-05-03T12:25:33.946Z,2.97
2023-05-03T12:28:36.467Z,2.60
2023-05-03T12:31:39.498Z,3.37
2023-05-03T12:34:42.299Z,3.43
2023-05-03T12:37:44.255Z,2.30
2023-05-03T12:40:46.761Z,2.27
2023-05-03T12:43:49.993Z,2.60
2023-05-03T12:46:53.869Z,3.00
2023-05-03T12:49:59.376Z,2.40
2023-05-03T12:53:02.611Z,2.37
2023-05-03T12:59:23.253Z,2.50
2023-05-03T13:05:35.852Z,2.60
2023-05-03T13:08:38.004Z,1.70
2023-05-03T13:11:39.673Z,2.00
2023-05-03T13:14:42.462Z,2.10
2023-05-03T13:17:46.682Z,2.17
2023-05-03T13:20:50.325Z,2.27
2023-05-03T13:23:51.752Z,2.53
2023-05-03T13:26:53.125Z,2.10
2023-05-03T13:29:54.594Z,2.00
2023-05-03T13:32:56.046Z,3.57
2023-05-03T13:35:57.718Z,2.17
2023-05-03T13:39:00.100Z,1.87
2023-05-03T13:42:02.311Z,2.20
2023-05-03T13:45:04.620Z,2.40
2023-05-03T13:48:17.644Z,2.20
2023-05-03T13:51:20.683Z,8.10
2023-05-03T13:54:22.230Z,1.93
2023-05-03T13:57:23.635Z,2.20
2023-05-03T14:00:25.138Z,1.90
2023-05-03T14:03:26.599Z,1.90
2023-05-03T14:06:29.304Z,2.33
2023-05-03T14:09:31.856Z,2.10
2023-05-03T14:12:36.524Z,2.17
2023-05-03T14:15:39.488Z,2.10
2023-05-03T14:18:40.980Z,2.43
2023-05-03T14:21:43.073Z,2.20
2023-05-03T14:24:45.494Z,2.20
2023-05-03T14:27:47.224Z,1.90
2023-05-03T14:30:48.921Z,2.30
2023-05-03T14:33:50.288Z,2.20
2023-05-03T14:36:52.458Z,1.90
2023-05-03T14:39:53.895Z,2.10
2023-05-03T14:42:55.447Z,2.10
2023-05-03T14:45:56.837Z,2.00
2023-05-03T14:48:59.077Z,2.33
2023-05-03T14:52:00.759Z,2.17
2023-05-03T14:55:02.273Z,2.40
2023-05-03T14:58:03.761Z,2.00
2023-05-03T15:01:05.199Z,1.97
2023-05-03T15:04:10.422Z,1.90
2023-05-03T15:07:12.220Z,2.20
2023-05-03T15:10:13.662Z,2.10
2023-05-03T15:13:16.107Z,2.60
2023-05-03T15:16:18.192Z,2.00
2023-05-03T15:19:19.595Z,1.60
2023-05-03T15:22:21.044Z,1.97
2023-05-03T15:25:22.495Z,2.33
2023-05-03T15:28:23.911Z,2.70
2023-05-03T15:31:25.594Z,2.00
2023-05-03T15:34:27.152Z,1.80
2023-05-03T15:37:35.815Z,2.10
2023-05-03T15:40:37.677Z,1.83
2023-05-03T15:43:39.102Z,1.67
2023-05-03T15:46:42.674Z,2.10
2023-05-03T15:49:44.520Z,1.80
2023-05-03T15:52:48.861Z,2.13
2023-05-03T15:55:52.617Z,2.40
2023-05-03T15:58:54.048Z,2.28
2023-05-03T16:01:55.482Z,2.10
2023-05-03T16:04:56.946Z,2.03
2023-05-03T16:07:58.362Z,2.47
2023-05-03T16:11:00.030Z,2.03
2023-05-03T16:14:01.496Z,2.67
2023-05-03T16:17:03.153Z,2.60
2023-05-03T16:20:05.781Z,2.65
2023-05-03T16:23:09.716Z,2.20
2023-05-03T16:26:14.274Z,2.20
2023-05-03T16:29:17.286Z,2.60
2023-05-03T16:32:19.122Z,2.53
2023-05-03T16:35:20.656Z,2.23
2023-05-03T16:38:22.272Z,2.17
2023-05-03T16:41:24.224Z,1.90
2023-05-03T16:44:26.039Z,2.10
2023-05-03T16:47:27.480Z,2.00
2023-05-03T16:50:28.857Z,1.80
2023-05-03T16:53:31.229Z,1.77
2023-05-03T16:56:32.802Z,2.50
2023-05-03T16:59:34.290Z,2.00
2023-05-03T17:02:36.474Z,2.20
2023-05-03T17:05:38.079Z,1.80
2023-05-03T17:08:39.762Z,1.93
2023-05-03T17:11:41.315Z,1.80
2023-05-03T17:14:42.842Z,1.90
2023-05-03T17:17:44.285Z,2.27
2023-05-03T17:20:46.245Z,2.10
2023-05-03T17:23:47.787Z,1.90
2023-05-03T17:26:49.247Z,1.83
2023-05-03T17:29:51.039Z,2.00
2023-05-03T17:32:52.516Z,2.13
2023-05-03T17:35:55.582Z,2.20
2023-05-03T17:38:57.252Z,2.10
2023-05-03T17:41:58.761Z,1.70
2023-05-03T17:45:01.501Z,2.10
2023-05-03T17:48:03.609Z,2.17
2023-05-03T17:51:05.986Z,1.90
2023-05-03T17:54:07.480Z,2.00
2023-05-03T17:57:09.709Z,1.83
2023-05-03T18:00:15.385Z,2.13
2023-05-03T18:03:18.015Z,2.20
2023-05-03T18:06:19.664Z,2.10
2023-05-03T18:09:21.034Z,1.83
2023-05-03T18:12:22.631Z,2.10
2023-05-03T18:15:24.010Z,1.83
2023-05-03T18:18:25.547Z,2.00
2023-05-03T18:21:27.790Z,2.17
2023-05-03T18:24:29.238Z,2.20
2023-05-03T18:27:30.608Z,1.73
2023-05-03T18:30:32.519Z,2.43
2023-05-03T18:33:33.960Z,2.17
2023-05-03T18:36:35.509Z,1.90
2023-05-03T18:39:36.887Z,2.30
2023-05-03T18:42:38.273Z,2.17
2023-05-03T18:45:40.248Z,2.10
2023-05-03T18:48:41.638Z,2.40
2023-05-03T18:51:43.445Z,2.30
2023-05-03T18:54:44.821Z,1.90
2023-05-03T18:57:46.286Z,1.60
2023-05-03T19:00:47.869Z,1.60
2023-05-03T19:03:49.544Z,1.70
2023-05-03T19:06:50.972Z,2.00
2023-05-03T19:09:57.009Z,1.87
2023-05-03T19:12:58.475Z,2.57
2023-05-03T19:15:59.858Z,1.87
2023-05-03T19:19:02.129Z,1.87
2023-05-03T19:22:03.646Z,1.90
2023-05-03T19:25:05.844Z,2.10
2023-05-03T19:28:07.911Z,2.10
2023-05-03T19:31:09.789Z,2.30
2023-05-03T19:34:11.409Z,2.10
2023-05-03T19:37:13.037Z,1.80
2023-05-03T19:40:14.498Z,2.20
2023-05-03T19:43:15.877Z,2.20
2023-05-03T19:46:19.738Z,2.30
2023-05-03T19:49:21.952Z,2.10
2023-05-03T19:52:23.435Z,2.00
2023-05-03T19:55:25.636Z,1.90
2023-05-03T19:58:27.947Z,2.10
2023-05-03T20:01:29.472Z,1.90
2023-05-03T20:04:30.990Z,1.97
2023-05-03T20:07:32.525Z,2.13
2023-05-03T20:10:36.271Z,1.90
2023-05-03T20:13:37.679Z,1.90
2023-05-03T20:16:40.681Z,1.87
2023-05-03T20:19:42.309Z,1.97
2023-05-03T20:22:43.709Z,2.00
2023-05-03T20:25:45.114Z,1.80
2023-05-03T20:28:46.667Z,2.07
2023-05-03T20:31:51.047Z,1.93
2023-05-03T20:34:52.517Z,1.97
2023-05-03T20:37:53.886Z,1.90
2023-05-03T20:40:55.368Z,1.73
2023-05-03T20:43:56.766Z,2.10
2023-05-03T20:46:58.135Z,2.47
2023-05-03T20:49:59.857Z,2.13
2023-05-03T20:53:01.745Z,2.20
2023-05-03T20:56:06.242Z,2.27
2023-05-03T20:59:08.101Z,2.10
2023-05-03T21:02:09.544Z,2.10
2023-05-03T21:05:11.355Z,2.20
2023-05-03T21:08:12.852Z,2.00
2023-05-03T21:11:14.395Z,2.00
2023-05-03T21:14:18.381Z,1.90
2023-05-03T21:17:19.952Z,1.73
2023-05-03T21:20:22.234Z,2.00
2023-05-03T21:23:23.611Z,2.50
2023-05-03T21:26:25.135Z,2.00
2023-05-03T21:29:26.509Z,2.00
2023-05-03T21:32:27.926Z,1.93
2023-05-03T21:35:29.344Z,1.60
2023-05-03T21:38:30.883Z,2.20
2023-05-03T21:41:32.261Z,2.20
2023-05-03T21:44:33.656Z,1.80
2023-05-03T21:47:35.089Z,1.93
2023-05-03T21:50:39.909Z,2.07
2023-05-03T21:53:41.304Z,1.97
2023-05-03T21:56:42.706Z,1.70
2023-05-03T21:59:44.550Z,1.87
2023-05-03T22:02:46.412Z,1.80
2023-05-03T22:05:50.277Z,1.90
2023-05-03T22:08:51.649Z,2.00
2023-05-03T22:11:53.111Z,1.97
2023-05-03T22:14:54.573Z,1.67
2023-05-03T22:17:56.653Z,1.97
2023-05-03T22:20:58.187Z,1.70
2023-05-03T22:23:59.595Z,1.83
2023-05-03T22:27:00.998Z,2.00
2023-05-03T22:30:02.591Z,1.50
2023-05-03T22:33:04.298Z,1.80
2023-05-03T22:36:06.558Z,1.80
2023-05-03T22:39:08.042Z,2.00
2023-05-03T22:42:09.422Z,1.97
2023-05-03T22:45:11.270Z,2.07
2023-05-03T22:48:12.813Z,2.27
2023-05-03T22:51:14.218Z,1.80
2023-05-03T22:54:15.981Z,1.90
2023-05-03T22:57:17.362Z,2.20
2023-05-03T23:00:21.182Z,1.90
2023-05-03T23:03:22.980Z,1.83
2023-05-03T23:06:24.977Z,1.90
2023-05-03T23:09:26.946Z,2.00
2023-05-03T23:12:28.433Z,1.77
2023-05-03T23:15:30.147Z,1.80
2023-05-03T23:18:31.542Z,1.90
2023-05-03T23:21:33.762Z,1.87
2023-05-03T23:24:35.280Z,2.00
2023-05-03T23:27:36.751Z,2.20
2023-05-03T23:30:45.260Z,2.20
2023-05-03T23:33:47.117Z,2.20
2023-05-03T23:36:48.531Z,1.97
2023-05-03T23:39:50.365Z,2.30
2023-05-03T23:42:51.886Z,2.10
2023-05-03T23:45:53.303Z,1.90
2023-05-03T23:48:54.904Z,2.10
2023-05-03T23:51:56.298Z,2.23
2023-05-03T23:54:57.714Z,2.17
2023-05-03T23:57:59.085Z,2.20
